Time;durP1;ratioP1;P1;durP2;ratioP2;P2;SDS_P1;SDS_P2;PMS_P1;PMS_P2;Temp;Humidity;BMP_temperature;BMP_pressure;BME280_temperature;BME280_humidity;BME280_pressure;Samples;Min_cycle;Max_cycle;Signal;HPM_P1;HPM_P2
2022/04/09 00:00:17;;;;;;;0.60;0.30;;;1.80;99.90;;;;;;5034499;28;20439;-40
2022/04/09 00:02:43;;;;;;;0.80;0.40;;;1.70;99.90;;;;;;5035027;28;20421;-42
2022/04/09 00:05:11;;;;;;;1.27;0.40;;;1.70;99.90;;;;;;5034082;28;20187;-43
2022/04/09 00:07:37;;;;;;;0.70;0.30;;;1.80;99.90;;;;;;5034058;28;20187;-42
2022/04/09 00:10:05;;;;;;;0.60;0.33;;;1.80;99.90;;;;;;5034123;28;20790;-43
2022/04/09 00:12:31;;;;;;;0.70;0.30;;;1.70;99.90;;;;;;5035773;28;20500;-43
2022/04/09 00:14:56;;;;;;;0.70;0.30;;;1.70;99.90;;;;;;5035405;28;20545;-41
2022/04/09 00:17:22;;;;;;;1.13;0.60;;;1.70;99.90;;;;;;5033758;28;20413;-43
2022/04/09 00:19:48;;;;;;;0.80;0.30;;;1.70;99.90;;;;;;5033866;28;20205;-42
2022/04/09 00:22:14;;;;;;;0.60;0.33;;;1.70;99.90;;;;;;5034188;28;20202;-43
2022/04/09 00:24:40;;;;;;;0.70;0.40;;;1.80;99.90;;;;;;5034017;28;20430;-42
2022/04/09 00:27:05;;;;;;;1.60;0.77;;;1.80;99.90;;;;;;5033709;28;20461;-43
2022/04/09 00:29:31;;;;;;;1.00;0.80;;;1.80;99.90;;;;;;5032803;28;20206;-43
2022/04/09 00:31:57;;;;;;;0.97;0.63;;;1.80;99.90;;;;;;5033190;28;20179;-43
2022/04/09 00:34:24;;;;;;;0.90;0.50;;;1.80;99.90;;;;;;5036822;28;20272;-42
2022/04/09 00:36:49;;;;;;;0.83;0.70;;;1.80;99.90;;;;;;5034665;28;20417;-40
2022/04/09 00:39:15;;;;;;;0.90;0.70;;;1.80;99.90;;;;;;5034527;28;20183;-43
2022/04/09 00:41:41;;;;;;;0.70;0.60;;;1.80;99.90;;;;;;5034639;28;20175;-43
2022/04/09 00:44:21;;;;;;;0.80;0.60;;;1.80;99.90;;;;;;5031904;28;20270;-43
2022/04/09 00:46:46;;;;;;;1.00;0.63;;;1.80;99.90;;;;;;5034132;28;20417;-42
2022/04/09 00:49:13;;;;;;;1.07;0.73;;;1.80;99.90;;;;;;5033323;28;20438;-43
2022/04/09 00:51:44;;;;;;;0.97;0.77;;;1.80;99.90;;;;;;5033257;28;20186;-45
2022/04/09 00:54:13;;;;;;;1.13;0.90;;;1.80;99.90;;;;;;5033689;28;20496;-43
2022/04/09 00:56:40;;;;;;;1.07;0.93;;;1.70;99.90;;;;;;5033851;28;20445;-43
2022/04/09 00:59:10;;;;;;;1.07;0.80;;;1.70;99.90;;;;;;5031958;28;20406;-43
2022/04/09 01:01:37;;;;;;;1.23;0.90;;;1.80;99.90;;;;;;5033821;28;20527;-42
2022/04/09 01:04:07;;;;;;;1.00;0.90;;;1.70;99.90;;;;;;5034668;28;20409;-43
2022/04/09 01:06:34;;;;;;;0.90;0.80;;;1.60;99.90;;;;;;5033601;28;20448;-42
2022/04/09 01:09:00;;;;;;;1.53;1.27;;;1.70;99.90;;;;;;5034401;28;20784;-43
2022/04/09 01:11:25;;;;;;;1.40;1.30;;;1.70;99.90;;;;;;5034281;28;20531;-41
2022/04/09 01:13:51;;;;;;;1.37;1.23;;;1.70;99.90;;;;;;5034296;28;20190;-43
2022/04/09 01:16:17;;;;;;;1.50;1.40;;;1.70;99.90;;;;;;5035054;28;20286;-43
2022/04/09 01:18:43;;;;;;;1.57;1.37;;;1.70;99.90;;;;;;5034947;28;20245;-43
2022/04/09 01:21:09;;;;;;;1.87;1.50;;;1.70;99.90;;;;;;5033019;28;20573;-42
2022/04/09 01:23:34;;;;;;;1.73;1.50;;;1.70;99.90;;;;;;5034576;28;20445;-42
2022/04/09 01:26:02;;;;;;;1.50;1.40;;;1.70;99.90;;;;;;5033226;28;20238;-42
2022/04/09 01:28:28;;;;;;;1.47;1.37;;;1.80;99.90;;;;;;5031943;28;20330;-42
2022/04/09 01:31:40;;;;;;;1.73;1.60;;;1.70;99.90;;;;;;5033669;28;20906;-42
2022/04/09 01:34:07;;;;;;;1.93;1.73;;;1.80;99.90;;;;;;5032429;28;20479;-43
2022/04/09 01:36:33;;;;;;;2.00;1.80;;;1.70;99.90;;;;;;5030509;28;20425;-42
2022/04/09 01:38:58;;;;;;;2.00;1.80;;;1.70;99.90;;;;;;5032220;28;20429;-43
2022/04/09 01:41:24;;;;;;;2.67;2.07;;;1.70;99.90;;;;;;5032419;28;20183;-43
2022/04/09 01:43:49;;;;;;;2.50;2.20;;;1.70;99.90;;;;;;5033290;28;20183;-43
2022/04/09 01:46:15;;;;;;;2.20;2.00;;;1.80;99.90;;;;;;5032874;28;20198;-42
2022/04/09 01:48:41;;;;;;;2.23;2.03;;;1.80;99.90;;;;;;5034461;28;20620;-43
2022/04/09 01:51:06;;;;;;;2.47;2.27;;;1.80;99.90;;;;;;5033145;28;20215;-41
2022/04/09 01:53:34;;;;;;;3.43;3.13;;;1.80;99.90;;;;;;5033117;28;20413;-42
2022/04/09 01:56:00;;;;;;;3.60;3.30;;;1.80;99.90;;;;;;5033228;28;20198;-42
2022/04/09 01:58:26;;;;;;;3.23;2.93;;;1.80;99.90;;;;;;5033572;28;20418;-43
2022/04/09 02:00:58;;;;;;;2.90;2.70;;;1.80;99.90;;;;;;5032549;28;20190;-43
2022/04/09 02:03:27;;;;;;;4.63;3.37;;;1.80;99.90;;;;;;5033122;28;20247;-43
2022/04/09 02:05:53;;;;;;;4.03;3.10;;;1.70;99.90;;;;;;5033502;28;20475;-43
2022/04/09 02:08:19;;;;;;;4.10;3.50;;;1.70;99.90;;;;;;5037659;28;20528;-43
2022/04/09 02:10:45;;;;;;;5.47;4.00;;;1.70;99.90;;;;;;5037551;28;20229;-43
2022/04/09 02:13:14;;;;;;;4.93;3.80;;;1.60;99.90;;;;;;5036799;28;20429;-41
2022/04/09 02:15:40;;;;;;;5.17;3.83;;;1.70;99.90;;;;;;5037835;28;20638;-43
2022/04/09 02:18:05;;;;;;;3.50;3.20;;;1.70;99.90;;;;;;5037103;28;20438;-42
2022/04/09 02:20:32;;;;;;;4.93;3.73;;;1.60;99.90;;;;;;5038038;28;20183;-42
2022/04/09 02:22:57;;;;;;;4.67;3.87;;;1.60;99.90;;;;;;5037726;28;20241;-43
2022/04/09 02:25:23;;;;;;;5.60;3.43;;;1.60;99.90;;;;;;5037631;28;20868;-43
2022/04/09 02:27:49;;;;;;;6.20;4.13;;;1.60;99.90;;;;;;5038252;28;20443;-42
2022/04/09 02:30:15;;;;;;;3.60;3.23;;;1.60;99.90;;;;;;5037242;28;20218;-43
2022/04/09 02:32:45;;;;;;;4.43;3.70;;;1.60;99.90;;;;;;5036668;28;20190;-41
2022/04/09 02:35:11;;;;;;;4.30;3.90;;;1.60;99.90;;;;;;5037558;28;20421;-43
2022/04/09 02:37:38;;;;;;;3.90;3.50;;;1.60;99.90;;;;;;5036787;28;20452;-42
2022/04/09 02:40:04;;;;;;;4.13;3.73;;;1.70;99.90;;;;;;5037043;28;20417;-43
2022/04/09 02:42:30;;;;;;;3.50;3.20;;;1.70;99.90;;;;;;5035916;28;20532;-43
2022/04/09 02:44:56;;;;;;;3.60;3.30;;;1.60;99.90;;;;;;5036147;28;20895;-43
2022/04/09 02:47:21;;;;;;;3.53;3.23;;;1.60;99.90;;;;;;5036525;28;20217;-40
2022/04/09 02:49:47;;;;;;;3.53;3.23;;;1.60;99.90;;;;;;5037682;28;20217;-43
2022/04/09 02:52:12;;;;;;;5.20;3.60;;;1.60;99.90;;;;;;5035735;28;20179;-43
2022/04/09 02:54:38;;;;;;;4.97;3.70;;;1.60;99.90;;;;;;5036790;28;20211;-43
2022/04/09 02:57:04;;;;;;;4.50;3.40;;;1.60;99.90;;;;;;5036154;28;20835;-43
2022/04/09 02:59:29;;;;;;;8.13;4.10;;;1.50;99.90;;;;;;5037804;28;20175;-43
2022/04/09 03:01:55;;;;;;;5.13;3.80;;;1.50;99.90;;;;;;5036957;28;20198;-42
2022/04/09 03:04:21;;;;;;;4.97;4.47;;;1.50;99.90;;;;;;5035948;28;20210;-43
2022/04/09 03:06:46;;;;;;;4.43;4.03;;;1.50;99.90;;;;;;5036224;28;20179;-43
2022/04/09 03:09:12;;;;;;;5.30;4.07;;;1.40;99.90;;;;;;5035360;28;20273;-43
2022/04/09 03:11:38;;;;;;;5.37;4.83;;;1.50;99.90;;;;;;5035315;28;20214;-43
2022/04/09 03:14:04;;;;;;;4.73;3.80;;;1.50;99.90;;;;;;5036253;28;20217;-43
2022/04/09 03:16:32;;;;;;;4.90;4.40;;;1.50;99.90;;;;;;5036502;28;20418;-43
2022/04/09 03:18:57;;;;;;;4.80;4.30;;;1.50;99.90;;;;;;5035492;28;20433;-43
2022/04/09 03:21:23;;;;;;;5.90;4.63;;;1.60;99.90;;;;;;5036985;28;20516;-43
2022/04/09 03:23:49;;;;;;;4.40;3.77;;;1.50;99.90;;;;;;5036367;28;20191;-43
2022/04/09 03:26:14;;;;;;;6.77;4.60;;;1.60;99.90;;;;;;5037837;28;20625;-41
2022/04/09 03:28:40;;;;;;;7.07;4.80;;;1.60;99.90;;;;;;5036568;28;20421;-42
2022/04/09 03:31:08;;;;;;;4.33;3.87;;;1.60;99.90;;;;;;5036221;28;20219;-41
2022/04/09 03:33:34;;;;;;;3.90;3.50;;;1.60;99.90;;;;;;5036891;28;20930;-43
2022/04/09 03:36:00;;;;;;;4.00;3.60;;;1.70;99.90;;;;;;5036120;28;20454;-43
2022/04/09 03:38:25;;;;;;;4.50;3.73;;;1.70;99.90;;;;;;5035555;28;20616;-42
2022/04/09 03:40:51;;;;;;;3.70;3.40;;;1.70;99.90;;;;;;5035186;28;20473;-41
2022/04/09 03:43:16;;;;;;;4.27;3.83;;;1.70;99.90;;;;;;5035863;28;20281;-43
2022/04/09 03:45:42;;;;;;;5.00;4.53;;;1.70;99.90;;;;;;5035917;28;20194;-43
2022/04/09 03:48:08;;;;;;;5.97;4.10;;;1.70;99.90;;;;;;5035655;28;20262;-43
2022/04/09 03:50:36;;;;;;;4.27;3.90;;;1.80;99.90;;;;;;5035134;28;20213;-43
2022/04/09 03:53:02;;;;;;;4.20;3.80;;;1.80;99.90;;;;;;5035067;28;20502;-41
2022/04/09 03:55:29;;;;;;;6.00;4.90;;;1.70;99.90;;;;;;5035291;28;20425;-43
2022/04/09 03:57:58;;;;;;;5.90;5.30;;;1.70;99.90;;;;;;5034697;28;20414;-42
2022/04/09 04:00:24;;;;;;;6.37;5.67;;;1.70;99.90;;;;;;5034180;28;20731;-43
2022/04/09 04:02:51;;;;;;;8.63;6.40;;;1.70;99.90;;;;;;5034816;28;20426;-41
2022/04/09 04:05:17;;;;;;;8.33;7.40;;;1.80;99.90;;;;;;5035028;28;20453;-42
2022/04/09 04:07:46;;;;;;;8.03;7.20;;;1.80;99.90;;;;;;5052261;28;20447;-43
2022/04/09 04:10:13;;;;;;;8.43;7.53;;;1.80;99.90;;;;;;5044210;28;20491;-43
2022/04/09 04:12:40;;;;;;;11.50;8.47;;;1.80;99.90;;;;;;5045393;28;20878;-41
2022/04/09 04:15:07;;;;;;;8.63;7.57;;;1.80;99.90;;;;;;5034005;28;20433;-42
2022/04/09 04:17:40;;;;;;;11.57;9.57;;;1.90;99.90;;;;;;5035029;28;20688;-45
2022/04/09 04:20:07;;;;;;;11.03;9.67;;;1.90;99.90;;;;;;5033811;28;20994;-43
2022/04/09 04:22:33;;;;;;;11.90;9.37;;;1.90;99.90;;;;;;5034895;28;20425;-41
2022/04/09 04:24:58;;;;;;;12.57;10.23;;;1.90;99.90;;;;;;5033992;28;20831;-42
2022/04/09 04:27:24;;;;;;;12.43;10.27;;;1.90;99.90;;;;;;5034791;28;20190;-43
2022/04/09 04:29:49;;;;;;;13.93;11.97;;;1.90;99.90;;;;;;5034746;28;20214;-40
2022/04/09 04:32:15;;;;;;;14.73;11.77;;;1.90;99.90;;;;;;5035833;28;20186;-43
2022/04/09 04:34:40;;;;;;;17.10;12.23;;;1.90;99.90;;;;;;5044596;28;20266;-42
2022/04/09 04:37:06;;;;;;;14.83;12.03;;;1.90;99.90;;;;;;5043217;28;20332;-41
2022/04/09 04:39:32;;;;;;;17.20;12.47;;;1.90;99.90;;;;;;5046147;28;20665;-42
2022/04/09 04:41:57;;;;;;;14.77;13.17;;;1.90;99.90;;;;;;5041839;28;20366;-41
2022/04/09 04:44:24;;;;;;;16.53;13.50;;;1.80;99.90;;;;;;5036878;28;20187;-41
2022/04/09 04:46:49;;;;;;;15.53;13.57;;;1.80;99.90;;;;;;5032826;28;20194;-41
2022/04/09 04:49:15;;;;;;;18.33;13.60;;;1.80;99.90;;;;;;5033970;28;20494;-43
2022/04/09 04:51:41;;;;;;;15.00;13.00;;;1.80;99.90;;;;;;5035546;28;20266;-42
2022/04/09 04:54:06;;;;;;;15.30;12.77;;;1.80;99.90;;;;;;5033888;28;20194;-44
2022/04/09 04:56:32;;;;;;;18.90;14.30;;;1.90;99.90;;;;;;5039550;28;20255;-42
2022/04/09 04:58:58;;;;;;;16.07;13.97;;;1.80;99.90;;;;;;5039367;28;20264;-43
2022/04/09 05:01:24;;;;;;;17.33;14.50;;;1.80;99.90;;;;;;5032481;28;20474;-41
2022/04/09 05:03:50;;;;;;;17.53;13.73;;;1.90;99.90;;;;;;5032309;28;20217;-42
2022/04/09 05:06:15;;;;;;;15.60;13.40;;;1.90;99.90;;;;;;5035601;28;20468;-43
2022/04/09 05:08:41;;;;;;;13.70;11.53;;;1.90;99.90;;;;;;5042661;28;20466;-43
2022/04/09 05:11:07;;;;;;;16.23;13.70;;;1.80;99.90;;;;;;5040777;28;20245;-43
2022/04/09 05:13:33;;;;;;;12.97;11.67;;;1.80;99.90;;;;;;5043376;28;20424;-43
2022/04/09 05:15:58;;;;;;;15.40;12.80;;;1.80;99.90;;;;;;5046866;28;20194;-43
2022/04/09 05:18:24;;;;;;;13.83;12.00;;;1.90;99.90;;;;;;5041618;28;20202;-42
2022/04/09 05:20:51;;;;;;;13.43;12.00;;;1.90;99.90;;;;;;5032389;28;20194;-43
2022/04/09 05:23:17;;;;;;;15.43;12.70;;;1.90;99.90;;;;;;5034138;28;20460;-42
2022/04/09 05:25:42;;;;;;;15.77;11.30;;;1.90;99.90;;;;;;5035342;28;22959;-43
2022/04/09 05:28:08;;;;;;;15.17;11.87;;;1.90;99.90;;;;;;5046509;28;20186;-42
2022/04/09 05:30:34;;;;;;;14.83;12.97;;;2.00;99.90;;;;;;5048752;28;20632;-43
2022/04/09 05:33:01;;;;;;;13.00;11.70;;;2.00;99.90;;;;;;5047645;28;20511;-42
2022/04/09 05:35:26;;;;;;;12.90;11.63;;;2.00;99.90;;;;;;5052314;28;21203;-43
2022/04/09 05:37:52;;;;;;;13.60;11.70;;;2.00;99.90;;;;;;5051405;28;20524;-43
2022/04/09 05:40:19;;;;;;;17.30;13.43;;;2.10;99.90;;;;;;5051047;28;20221;-43
2022/04/09 05:42:45;;;;;;;14.77;10.90;;;2.10;99.90;;;;;;5040879;28;20448;-44
2022/04/09 05:45:11;;;;;;;16.37;14.67;;;2.10;99.90;;;;;;5036401;28;20418;-45
2022/04/09 05:47:42;;;;;;;13.80;11.80;;;2.10;99.90;;;;;;5036945;28;20226;-42
2022/04/09 05:50:09;;;;;;;16.33;12.20;;;2.20;99.90;;;;;;5036102;28;20512;-45
2022/04/09 05:52:35;;;;;;;12.67;11.37;;;2.20;99.90;;;;;;5041366;28;20722;-43
2022/04/09 05:55:03;;;;;;;15.90;14.40;;;2.20;99.90;;;;;;5055949;28;20444;-42
2022/04/09 05:57:31;;;;;;;11.77;10.60;;;2.30;99.90;;;;;;5042171;28;20301;-42
2022/04/09 05:59:57;;;;;;;17.83;14.07;;;2.30;99.90;;;;;;5035417;28;20499;-42
2022/04/09 06:02:23;;;;;;;15.33;11.33;;;2.30;99.90;;;;;;5036445;28;20831;-43
2022/04/09 06:04:49;;;;;;;11.63;10.47;;;2.30;99.90;;;;;;5044744;28;20496;-42
2022/04/09 06:07:14;;;;;;;10.53;9.37;;;2.40;99.90;;;;;;5047526;28;20190;-44
2022/04/09 06:09:41;;;;;;;14.73;10.70;;;2.50;99.90;;;;;;5042991;28;20203;-42
2022/04/09 06:12:07;;;;;;;13.90;10.63;;;2.40;99.90;;;;;;5046345;28;20607;-42
2022/04/09 06:14:34;;;;;;;11.60;10.17;;;2.30;99.90;;;;;;5046208;28;20456;-42
2022/04/09 06:17:00;;;;;;;12.87;10.90;;;2.30;99.90;;;;;;5052472;28;20503;-41
2022/04/09 06:19:27;;;;;;;10.30;9.10;;;2.30;99.90;;;;;;5045556;28;20543;-45
2022/04/09 06:21:53;;;;;;;13.50;10.83;;;2.30;99.90;;;;;;5045698;28;20200;-45
2022/04/09 06:24:18;;;;;;;11.33;10.13;;;2.40;99.90;;;;;;5043472;28;20428;-42
2022/04/09 06:26:44;;;;;;;11.07;9.83;;;2.50;99.90;;;;;;5045274;28;20971;-41
2022/04/09 06:29:09;;;;;;;11.70;10.60;;;2.60;99.90;;;;;;5044927;28;20575;-45
2022/04/09 06:31:35;;;;;;;12.17;9.90;;;2.70;99.90;;;;;;5041992;28;20206;-43
2022/04/09 06:34:00;;;;;;;18.10;11.17;;;2.90;99.90;;;;;;5045017;28;20308;-42
2022/04/09 06:36:26;;;;;;;11.97;10.00;;;3.20;99.90;;;;;;5043754;28;20190;-43
2022/04/09 06:38:53;;;;;;;11.30;10.17;;;3.30;99.90;;;;;;5042985;28;20495;-44
2022/04/09 06:41:19;;;;;;;9.17;8.30;;;3.40;99.30;;;;;;5042991;28;20942;-45
2022/04/09 06:43:48;;;;;;;11.13;9.77;;;3.40;98.70;;;;;;5041363;28;20479;-43
2022/04/09 06:46:14;;;;;;;13.50;10.33;;;3.30;98.80;;;;;;5041476;28;20475;-43
2022/04/09 06:48:40;;;;;;;14.77;9.83;;;3.20;98.80;;;;;;5042370;28;20445;-44
2022/04/09 06:51:06;;;;;;;10.90;9.80;;;3.10;98.20;;;;;;5030914;28;20826;-42
2022/04/09 06:53:31;;;;;;;11.93;9.97;;;3.10;99.00;;;;;;5031318;28;20538;-44
2022/04/09 06:55:57;;;;;;;11.27;9.83;;;3.10;99.20;;;;;;5032327;28;20442;-44
2022/04/09 06:58:23;;;;;;;10.37;9.37;;;3.10;99.10;;;;;;5033213;28;20566;-42
2022/04/09 07:00:48;;;;;;;12.33;9.90;;;3.00;99.20;;;;;;5032223;28;20284;-42
2022/04/09 07:03:14;;;;;;;12.20;10.90;;;2.90;99.20;;;;;;5032792;28;20179;-43
2022/04/09 07:05:43;;;;;;;12.97;11.60;;;2.80;99.20;;;;;;5035001;28;20197;-42
2022/04/09 07:08:09;;;;;;;12.60;9.17;;;2.80;99.30;;;;;;5033823;28;20627;-41
2022/04/09 07:10:37;;;;;;;12.80;11.43;;;2.80;99.10;;;;;;5031911;28;20584;-42
2022/04/09 07:13:06;;;;;;;12.23;9.77;;;2.90;99.10;;;;;;5032009;28;20516;-43
2022/04/09 07:15:33;;;;;;;11.97;9.30;;;3.00;98.90;;;;;;5031042;28;20437;-42
2022/04/09 07:17:58;;;;;;;8.90;8.00;;;3.00;99.00;;;;;;5032388;28;20414;-43
2022/04/09 07:20:24;;;;;;;13.23;10.50;;;3.20;98.70;;;;;;5031903;28;20519;-43
2022/04/09 07:22:50;;;;;;;10.80;8.60;;;3.10;98.70;;;;;;5032987;28;20244;-42
2022/04/09 07:25:16;;;;;;;9.50;7.53;;;3.20;98.70;;;;;;5037902;28;20632;-42
2022/04/09 07:27:47;;;;;;;15.73;9.50;;;3.20;98.50;;;;;;5052183;28;20214;-43
2022/04/09 07:30:22;;;;;;;9.73;7.17;;;3.20;98.60;;;;;;5052313;28;20960;-43
2022/04/09 07:32:49;;;;;;;8.93;8.00;;;3.40;98.20;;;;;;5053454;28;20512;-41
2022/04/09 07:35:15;;;;;;;11.00;8.33;;;3.60;98.40;;;;;;5049323;28;20444;-42
2022/04/09 07:37:41;;;;;;;10.60;8.70;;;3.70;98.10;;;;;;5050640;28;20413;-41
2022/04/09 07:40:09;;;;;;;11.33;8.60;;;3.80;97.80;;;;;;5050582;28;20433;-44
2022/04/09 07:42:36;;;;;;;11.40;6.87;;;3.80;97.70;;;;;;5038541;28;20465;-43
2022/04/09 07:45:03;;;;;;;15.43;9.43;;;3.90;97.30;;;;;;5032134;28;20436;-43
2022/04/09 07:47:30;;;;;;;11.77;7.57;;;4.00;97.70;;;;;;5032177;28;20413;-42
2022/04/09 07:49:56;;;;;;;12.33;7.80;;;4.00;97.50;;;;;;5031219;28;20569;-42
2022/04/09 07:52:22;;;;;;;8.57;7.63;;;4.10;97.30;;;;;;5029972;28;20777;-44
2022/04/09 07:54:47;;;;;;;9.17;7.40;;;4.10;96.90;;;;;;5029166;28;20449;-42
2022/04/09 07:57:13;;;;;;;13.80;8.10;;;4.20;97.10;;;;;;5029862;28;20555;-42
2022/04/09 07:59:39;;;;;;;10.30;7.80;;;4.20;97.40;;;;;;5029354;28;20225;-46
2022/04/09 08:02:06;;;;;;;13.63;7.50;;;4.30;97.50;;;;;;5028655;28;20210;-42
2022/04/09 08:04:31;;;;;;;8.07;6.90;;;4.40;97.50;;;;;;5025345;28;20183;-42
2022/04/09 08:06:58;;;;;;;14.40;6.67;;;4.50;97.30;;;;;;5029413;28;20481;-45
2022/04/09 08:09:24;;;;;;;9.03;7.40;;;4.60;96.90;;;;;;5029451;28;20187;-43
2022/04/09 08:11:49;;;;;;;9.83;6.80;;;4.80;97.20;;;;;;5031254;28;20414;-42
2022/04/09 08:14:15;;;;;;;8.27;7.17;;;5.40;97.40;;;;;;5030941;28;20221;-43
2022/04/09 08:16:41;;;;;;;9.57;6.50;;;6.10;95.30;;;;;;5031727;28;20413;-42
2022/04/09 08:19:07;;;;;;;6.73;5.60;;;6.00;94.60;;;;;;5029747;28;20249;-43
2022/04/09 08:21:33;;;;;;;8.30;5.73;;;6.20;94.70;;;;;;5029865;28;20677;-43
2022/04/09 08:23:59;;;;;;;6.60;5.97;;;6.50;93.60;;;;;;5031151;28;20434;-42
2022/04/09 08:26:24;;;;;;;7.50;6.20;;;6.70;93.40;;;;;;5030893;28;20474;-43
2022/04/09 08:28:50;;;;;;;8.53;5.83;;;6.70;93.00;;;;;;5028766;28;20323;-42
2022/04/09 08:31:16;;;;;;;6.10;5.50;;;6.20;92.20;;;;;;5029515;28;20495;-42
2022/04/09 08:33:42;;;;;;;9.87;6.57;;;5.70;92.90;;;;;;5028525;28;20231;-46
2022/04/09 08:36:08;;;;;;;10.93;6.53;;;5.30;93.90;;;;;;5027257;28;20295;-43
2022/04/09 08:38:33;;;;;;;11.17;6.60;;;5.10;94.60;;;;;;5029098;28;20409;-43
2022/04/09 08:41:03;;;;;;;7.13;6.40;;;5.00;95.70;;;;;;5028333;28;20237;-46
2022/04/09 08:43:32;;;;;;;11.40;6.63;;;5.10;95.10;;;;;;5031879;28;20462;-44
2022/04/09 08:46:02;;;;;;;6.87;5.30;;;5.20;94.30;;;;;;5031156;28;20433;-43
2022/04/09 08:48:28;;;;;;;11.10;5.70;;;5.20;93.90;;;;;;5031108;28;20612;-43
2022/04/09 08:50:54;;;;;;;12.10;6.20;;;5.10;93.80;;;;;;5030844;28;20503;-43
2022/04/09 08:53:20;;;;;;;6.93;5.70;;;5.20;94.40;;;;;;5029460;28;20441;-43
2022/04/09 08:55:47;;;;;;;11.40;5.07;;;5.20;94.40;;;;;;5028723;28;20418;-42
2022/04/09 08:58:13;;;;;;;8.80;5.70;;;5.00;94.30;;;;;;5028700;28;20429;-44
2022/04/09 09:00:39;;;;;;;8.83;5.87;;;5.00;95.00;;;;;;5031364;28;20425;-43
2022/04/09 09:03:10;;;;;;;9.10;6.00;;;5.00;95.10;;;;;;5030945;28;20183;-43
2022/04/09 09:05:41;;;;;;;7.37;5.30;;;5.00;95.40;;;;;;5031008;28;20190;-43
2022/04/09 09:08:09;;;;;;;6.80;5.47;;;4.90;94.90;;;;;;5028714;28;20604;-46
2022/04/09 09:10:36;;;;;;;6.50;5.50;;;5.00;95.00;;;;;;5027778;28;20484;-43
2022/04/09 09:13:04;;;;;;;14.43;5.93;;;5.20;95.50;;;;;;5030469;28;20804;-44
2022/04/09 09:15:30;;;;;;;9.20;6.20;;;5.40;95.00;;;;;;5028237;28;20434;-45
2022/04/09 09:17:57;;;;;;;7.13;5.30;;;5.80;94.40;;;;;;5030581;28;20682;-44
2022/04/09 09:20:23;;;;;;;8.43;5.10;;;6.00;93.70;;;;;;5031049;28;20743;-44
2022/04/09 09:22:49;;;;;;;6.27;4.70;;;5.90;92.30;;;;;;5029937;28;20516;-45
2022/04/09 09:25:15;;;;;;;9.20;5.40;;;6.00;92.20;;;;;;5030452;28;20487;-45
2022/04/09 09:27:41;;;;;;;7.53;4.70;;;6.00;92.20;;;;;;5031954;28;20421;-44
2022/04/09 09:30:09;;;;;;;9.50;5.40;;;6.00;92.20;;;;;;5032410;28;20492;-46
2022/04/09 09:32:35;;;;;;;5.23;4.63;;;6.20;91.90;;;;;;5032247;28;20900;-46
2022/04/09 09:35:01;;;;;;;7.83;4.43;;;6.20;92.40;;;;;;5031577;28;20434;-46
2022/04/09 09:37:28;;;;;;;6.70;4.33;;;6.90;92.00;;;;;;5031926;28;20414;-46
2022/04/09 09:39:54;;;;;;;11.03;4.10;;;7.40;89.90;;;;;;5027145;28;20442;-46
2022/04/09 09:42:21;;;;;;;5.80;3.87;;;7.40;85.90;;;;;;5028115;28;20433;-44
2022/04/09 09:44:47;;;;;;;5.13;3.53;;;7.40;85.90;;;;;;5029044;28;21002;-44
2022/04/09 09:47:14;;;;;;;7.27;4.33;;;7.50;85.30;;;;;;5029459;28;20504;-44
2022/04/09 09:49:56;;;;;;;6.90;4.63;;;7.30;86.60;;;;;;5026950;28;20676;-44
2022/04/09 09:52:35;;;;;;;10.10;4.20;;;7.70;87.20;;;;;;5025787;28;20418;-43
2022/04/09 09:55:10;;;;;;;5.30;3.20;;;8.20;86.60;;;;;;5028087;28;20429;-43
2022/04/09 09:57:38;;;;;;;6.20;3.10;;;8.90;86.00;;;;;;5029978;28;20707;-43
2022/04/09 10:00:06;;;;;;;5.87;3.03;;;9.40;81.80;;;;;;5026315;28;20482;-44
2022/04/09 10:02:32;;;;;;;6.20;4.00;;;9.50;80.10;;;;;;5028436;28;20509;-43
2022/04/09 10:04:58;;;;;;;6.30;3.50;;;9.10;78.20;;;;;;5027283;28;20444;-46
2022/04/09 10:07:25;;;;;;;3.73;3.33;;;8.70;80.10;;;;;;5026776;28;20424;-44
2022/04/09 10:09:53;;;;;;;5.73;3.93;;;8.30;81.10;;;;;;5025412;28;20531;-47
2022/04/09 10:12:24;;;;;;;6.57;3.73;;;8.40;83.00;;;;;;5026119;28;20410;-46
2022/04/09 10:14:59;;;;;;;4.60;3.20;;;8.50;81.10;;;;;;5023437;28;20510;-45
2022/04/09 10:17:26;;;;;;;5.57;4.00;;;8.60;79.60;;;;;;5025702;28;20413;-46
2022/04/09 10:20:01;;;;;;;5.97;3.90;;;8.50;78.30;;;;;;5027569;28;20671;-44
2022/04/09 10:22:31;;;;;;;6.37;3.23;;;8.50;80.30;;;;;;5027448;28;20422;-43
2022/04/09 10:24:58;;;;;;;6.17;3.20;;;10.10;80.10;;;;;;5027000;28;20437;-45
2022/04/09 10:27:35;;;;;;;5.03;3.53;;;11.20;75.70;;;;;;5028763;28;20824;-43
2022/04/09 10:30:02;;;;;;;9.30;4.03;;;10.20;68.50;;;;;;5033706;28;20472;-44
2022/04/09 10:32:49;;;;;;;7.20;3.60;;;9.30;73.60;;;;;;5045274;28;20527;-48
2022/04/09 10:35:39;;;;;;;8.70;4.23;;;8.20;75.30;;;;;;5050264;28;20449;-47
2022/04/09 10:38:10;;;;;;;6.03;4.40;;;7.30;78.70;;;;;;5053752;28;20474;-47
2022/04/09 10:40:44;;;;;;;3.17;2.87;;;7.30;80.50;;;;;;5053845;28;20849;-44
2022/04/09 10:43:37;;;;;;;5.27;3.40;;;8.80;81.10;;;;;;5052953;28;20420;-47
2022/04/09 10:46:06;;;;;;;9.97;3.40;;;10.70;73.10;;;;;;5049633;28;20729;-45
2022/04/09 10:48:33;;;;;;;7.40;3.97;;;11.10;67.00;;;;;;5049896;28;20425;-44
2022/04/09 10:50:58;;;;;;;7.40;3.60;;;10.20;63.80;;;;;;5051387;28;20894;-43
2022/04/09 10:53:29;;;;;;;6.10;2.90;;;10.80;63.90;;;;;;5051412;28;20416;-45
2022/04/09 10:56:12;;;;;;;6.37;3.50;;;12.10;61.90;;;;;;5049852;28;20630;-47
2022/04/09 10:59:08;;;;;;;6.33;4.93;;;11.90;59.70;;;;;;5052382;28;20405;-44
2022/04/09 11:01:46;;;;;;;4.47;3.43;;;12.00;59.50;;;;;;5054467;28;20560;-44
2022/04/09 11:04:27;;;;;;;5.80;3.60;;;11.30;58.50;;;;;;5052886;28;20689;-45
2022/04/09 11:07:04;;;;;;;6.40;3.60;;;11.70;59.10;;;;;;5052815;28;20470;-45
2022/04/09 11:09:48;;;;;;;7.80;3.60;;;12.30;58.20;;;;;;5051782;28;20725;-46
2022/04/09 11:12:36;;;;;;;5.77;3.23;;;11.60;57.40;;;;;;5051669;28;20408;-46
2022/04/09 11:15:07;;;;;;;5.80;3.20;;;12.70;57.60;;;;;;5044424;28;20494;-44
2022/04/09 11:17:40;;;;;;;5.17;3.37;;;13.00;56.10;;;;;;5052726;28;20691;-43
2022/04/09 11:20:07;;;;;;;4.70;2.63;;;12.20;56.20;;;;;;5051783;28;20479;-44
2022/04/09 11:22:55;;;;;;;8.70;3.13;;;12.00;56.50;;;;;;5051862;28;20419;-43
2022/04/09 11:25:22;;;;;;;7.20;3.57;;;11.00;57.70;;;;;;5051327;28;20595;-45
2022/04/09 11:27:48;;;;;;;5.73;3.40;;;10.00;58.30;;;;;;5051082;28;20407;-45
2022/04/09 11:30:14;;;;;;;5.30;3.80;;;10.10;60.60;;;;;;5048584;28;20472;-45
2022/04/09 11:32:40;;;;;;;5.87;3.70;;;9.20;61.50;;;;;;5047138;28;20432;-44
2022/04/09 11:35:13;;;;;;;5.07;3.07;;;9.70;63.90;;;;;;5047644;28;20780;-43
2022/04/09 11:37:48;;;;;;;8.73;3.50;;;10.80;61.10;;;;;;5049517;28;20174;-45
2022/04/09 11:40:15;;;;;;;8.60;4.20;;;10.00;57.30;;;;;;5049728;28;20822;-46
2022/04/09 11:42:47;;;;;;;7.53;4.07;;;9.60;60.50;;;;;;5051039;28;20858;-44
2022/04/09 11:45:17;;;;;;;6.83;3.10;;;9.80;61.70;;;;;;5049151;28;20832;-44
2022/04/09 11:47:43;;;;;;;6.33;3.40;;;10.10;58.80;;;;;;5052075;28;20521;-44
2022/04/09 11:50:11;;;;;;;6.97;3.30;;;11.20;58.60;;;;;;5050194;28;21032;-47
2022/04/09 11:52:37;;;;;;;6.83;2.93;;;12.50;57.80;;;;;;5052844;28;20428;-44
2022/04/09 11:55:08;;;;;;;8.13;2.90;;;12.00;55.30;;;;;;5051869;28;20412;-43
2022/04/09 11:57:33;;;;;;;5.60;3.17;;;11.60;56.20;;;;;;5049789;28;20252;-43
2022/04/09 11:59:59;;;;;;;5.60;2.93;;;11.30;57.10;;;;;;5050843;28;20432;-43
2022/04/09 12:02:26;;;;;;;7.20;2.80;;;11.30;56.60;;;;;;5049299;28;20353;-44
2022/04/09 12:04:54;;;;;;;3.93;2.00;;;12.60;55.80;;;;;;5051720;28;20397;-44
2022/04/09 12:07:19;;;;;;;3.30;2.17;;;13.80;52.10;;;;;;5051262;28;20448;-44
2022/04/09 12:09:45;;;;;;;6.30;2.67;;;14.70;48.70;;;;;;5052182;28;20899;-44
2022/04/09 12:12:11;;;;;;;6.10;2.80;;;14.20;48.00;;;;;;5052307;28;20247;-43
2022/04/09 12:14:37;;;;;;;5.83;2.43;;;14.00;49.30;;;;;;5052526;28;20436;-45
2022/04/09 12:17:14;;;;;;;5.37;2.53;;;14.40;48.40;;;;;;5051669;28;20426;-45
2022/04/09 12:19:43;;;;;;;4.70;1.90;;;14.50;47.80;;;;;;5052195;28;20444;-39
2022/04/09 12:22:35;;;;;;;4.60;2.80;;;14.10;51.80;;;;;;5050689;28;20768;-44
2022/04/09 12:25:00;;;;;;;5.27;2.30;;;14.20;50.30;;;;;;5050701;28;20440;-43
2022/04/09 12:27:43;;;;;;;4.90;2.23;;;14.70;49.30;;;;;;5051933;28;20420;-47
2022/04/09 12:30:10;;;;;;;3.87;2.27;;;13.50;46.30;;;;;;5049950;28;20519;-47
2022/04/09 12:32:36;;;;;;;4.00;2.10;;;14.50;47.00;;;;;;5050952;28;20735;-45
2022/04/09 12:35:09;;;;;;;3.43;2.20;;;15.50;44.70;;;;;;5050606;28;20440;-44
2022/04/09 12:37:52;;;;;;;5.70;2.40;;;15.00;44.40;;;;;;5052558;28;20787;-44
2022/04/09 12:40:21;;;;;;;3.63;2.40;;;12.80;44.20;;;;;;5050602;28;20470;-46
2022/04/09 12:42:47;;;;;;;4.70;2.17;;;12.80;47.10;;;;;;5050491;28;20413;-42
2022/04/09 12:45:22;;;;;;;4.80;2.77;;;12.90;47.70;;;;;;5051957;28;20456;-44
2022/04/09 12:47:58;;;;;;;3.13;1.90;;;12.00;45.40;;;;;;5050746;28;20413;-47
2022/04/09 12:50:34;;;;;;;5.80;2.30;;;13.10;46.10;;;;;;5050700;28;20576;-45
2022/04/09 12:53:05;;;;;;;4.33;1.90;;;14.30;43.60;;;;;;5051635;28;20703;-45